Welcome to Trans World Virtual Airlines!

Welcome TWVA's Newest Pilot:

TWA2297 Terrance P OLeary

Not a Trans World pilot yet?
Apply Now!




Sign-in with your pilot id or email, or register

Flight TWA216-A

  • Submitted By: Austin Hill
  • Departure Airport: Lambert-Saint Louis International Airport (KSTL)
  • Arrival Airport: Detroit Metropolitan Wayne County Airport (KDTW)
  • Aircraft: MD-83 (N44266TW)
  • Flight Time: 01.53
  • Date Submitted: 04/09/2018
  • Route: STL J240 VHP V210 MIE V210 ROD J43 CRL KDTW
  • Status: Accepted
Flight Details
Gross Revenue:
(116 load / $ 195.00 per unit
$ 22, 620.00
Fuel Cost:
(14370 fuel used @ 0.8 / unit)
$ 11, 496.00

Additional Log Information:

View Log

FS[17:57] Aircraft Title - MD_83 Paint4
FS[17:57] Aircraft Model - MD83
FS[17:57] Flight Number TWA216-A
FS[17:57] Departure KSTL
FS[17:57] Destination KDTW
FS[17:57] Boarding
FS[18:06] Pushing Back
FS[18:13] Taxiing to Runway
FS[18:21] Taking Off
FS[18:22] Taking Off
FS[18:22] 180kts
FS[18:22] pitch angle 7 degrees
FS[18:22] 27025 (lbs) of fuel onboard
FS[18:22] Climbing
FS[18:37] TOC Reached
FS[18:37] Cruise 31000
FS[19:06] TOD Reached
FS[19:06] Descending
FS[19:23] On Approach
FS[19:28] Landing Rate -131fpm
FS[19:28] 16163 (lbs) of fuel onboard
FS[19:28] pitch angle 7 degrees
FS[19:28] Taxiing to Gate
FS[19:42] Arrived
FS[19:49] Max Sim Rate: 1x
FS[19:49] kACARS_Free Version 1.0.1.1

Comments

Commenter Comment
Austin Hill KSTL 091803Z 00000KT SCT046 BKN060 08/M02 A3013 // KDTW 091912Z 05104KT 9SM FEW020 BKN047 04/M04 A3014

Route Map